sensor_id;sensor_type;location;lat;lon;timestamp;pressure;altitude;pressure_sealevel;temperature;humidity
73518;BME280;61766;60.318;25.044;2024-03-17T00:02:21;100294.27;;;5.59;50.64
73518;BME280;61766;60.318;25.044;2024-03-17T00:04:47;100299.74;;;5.73;50.10
73518;BME280;61766;60.318;25.044;2024-03-17T00:07:12;100303.56;;;5.81;49.57
73518;BME280;61766;60.318;25.044;2024-03-17T00:09:37;100314.13;;;5.84;49.84
73518;BME280;61766;60.318;25.044;2024-03-17T00:12:02;100322.27;;;5.63;49.75
73518;BME280;61766;60.318;25.044;2024-03-17T00:14:28;100329.40;;;5.38;49.84
73518;BME280;61766;60.318;25.044;2024-03-17T00:16:52;100337.85;;;5.33;49.84
73518;BME280;61766;60.318;25.044;2024-03-17T00:19:17;100338.39;;;5.79;49.51
73518;BME280;61766;60.318;25.044;2024-03-17T00:21:43;100340.97;;;5.40;49.40
73518;BME280;61766;60.318;25.044;2024-03-17T00:24:08;100338.20;;;5.24;50.07
73518;BME280;61766;60.318;25.044;2024-03-17T00:26:36;100344.20;;;5.01;50.71
73518;BME280;61766;60.318;25.044;2024-03-17T00:28:58;100345.64;;;4.39;51.75
73518;BME280;61766;60.318;25.044;2024-03-17T00:31:23;100348.14;;;4.94;50.86
73518;BME280;61766;60.318;25.044;2024-03-17T00:33:48;100344.44;;;5.21;50.70
73518;BME280;61766;60.318;25.044;2024-03-17T00:36:15;100336.57;;;5.18;49.65
73518;BME280;61766;60.318;25.044;2024-03-17T00:38:38;100334.15;;;4.93;49.81
73518;BME280;61766;60.318;25.044;2024-03-17T00:41:05;100331.02;;;5.22;49.34
73518;BME280;61766;60.318;25.044;2024-03-17T00:43:29;100336.00;;;4.52;50.44
73518;BME280;61766;60.318;25.044;2024-03-17T00:45:54;100334.92;;;4.60;50.12
73518;BME280;61766;60.318;25.044;2024-03-17T00:48:19;100338.72;;;4.79;50.31
73518;BME280;61766;60.318;25.044;2024-03-17T00:50:45;100339.64;;;4.58;50.62
73518;BME280;61766;60.318;25.044;2024-03-17T00:53:09;100343.16;;;4.18;49.90
73518;BME280;61766;60.318;25.044;2024-03-17T00:55:34;100347.48;;;4.16;50.31
73518;BME280;61766;60.318;25.044;2024-03-17T00:57:59;100351.05;;;4.33;50.32
73518;BME280;61766;60.318;25.044;2024-03-17T01:00:25;100356.38;;;3.95;50.66
73518;BME280;61766;60.318;25.044;2024-03-17T01:02:50;100356.33;;;3.15;52.53
73518;BME280;61766;60.318;25.044;2024-03-17T01:05:15;100357.91;;;3.33;52.11
73518;BME280;61766;60.318;25.044;2024-03-17T01:07:40;100358.27;;;3.47;51.66
73518;BME280;61766;60.318;25.044;2024-03-17T01:10:05;100360.58;;;3.08;52.33
73518;BME280;61766;60.318;25.044;2024-03-17T01:12:30;100374.12;;;3.51;51.26
73518;BME280;61766;60.318;25.044;2024-03-17T01:14:55;100374.93;;;2.85;52.76
73518;BME280;61766;60.318;25.044;2024-03-17T01:17:21;100382.07;;;2.73;53.19
73518;BME280;61766;60.318;25.044;2024-03-17T01:19:46;100387.43;;;2.96;52.51
73518;BME280;61766;60.318;25.044;2024-03-17T01:22:11;100397.38;;;3.04;51.60
73518;BME280;61766;60.318;25.044;2024-03-17T01:24:36;100391.59;;;3.15;51.43
73518;BME280;61766;60.318;25.044;2024-03-17T01:27:01;100395.14;;;3.15;52.39
73518;BME280;61766;60.318;25.044;2024-03-17T01:29:26;100398.24;;;3.65;51.55
73518;BME280;61766;60.318;25.044;2024-03-17T01:31:51;100395.57;;;3.29;52.20
73518;BME280;61766;60.318;25.044;2024-03-17T01:34:17;100392.16;;;3.13;51.53
73518;BME280;61766;60.318;25.044;2024-03-17T01:36:42;100386.88;;;3.19;52.01
73518;BME280;61766;60.318;25.044;2024-03-17T01:39:07;100387.57;;;3.33;51.97
73518;BME280;61766;60.318;25.044;2024-03-17T01:41:32;100388.90;;;2.52;53.51
73518;BME280;61766;60.318;25.044;2024-03-17T01:43:58;100392.99;;;2.92;53.14
73518;BME280;61766;60.318;25.044;2024-03-17T01:46:23;100391.34;;;2.87;52.67
73518;BME280;61766;60.318;25.044;2024-03-17T01:48:48;100374.64;;;2.84;53.13
73518;BME280;61766;60.318;25.044;2024-03-17T01:51:14;100376.85;;;2.55;53.65
73518;BME280;61766;60.318;25.044;2024-03-17T01:53:38;100372.03;;;2.05;54.67
73518;BME280;61766;60.318;25.044;2024-03-17T01:56:04;100359.99;;;2.21;54.31
73518;BME280;61766;60.318;25.044;2024-03-17T01:58:29;100360.47;;;2.74;54.17
73518;BME280;61766;60.318;25.044;2024-03-17T02:00:53;100368.04;;;2.18;55.22
73518;BME280;61766;60.318;25.044;2024-03-17T02:03:18;100366.02;;;1.97;55.29
73518;BME280;61766;60.318;25.044;2024-03-17T02:05:44;100373.67;;;2.16;55.03
73518;BME280;61766;60.318;25.044;2024-03-17T02:08:09;100383.27;;;2.05;54.38
73518;BME280;61766;60.318;25.044;2024-03-17T02:10:34;100376.66;;;2.25;54.90
73518;BME280;61766;60.318;25.044;2024-03-17T02:13:01;100366.75;;;2.00;54.81
73518;BME280;61766;60.318;25.044;2024-03-17T02:15:24;100365.37;;;2.08;55.20
73518;BME280;61766;60.318;25.044;2024-03-17T02:17:50;100366.67;;;2.00;54.47
73518;BME280;61766;60.318;25.044;2024-03-17T02:20:15;100366.39;;;2.05;54.62
73518;BME280;61766;60.318;25.044;2024-03-17T02:22:40;100366.53;;;2.24;54.35
73518;BME280;61766;60.318;25.044;2024-03-17T02:25:07;100367.05;;;2.38;53.39
73518;BME280;61766;60.318;25.044;2024-03-17T02:27:30;100367.63;;;2.41;53.15
73518;BME280;61766;60.318;25.044;2024-03-17T02:29:56;100372.54;;;2.11;53.36
73518;BME280;61766;60.318;25.044;2024-03-17T02:32:20;100371.21;;;2.47;53.01
73518;BME280;61766;60.318;25.044;2024-03-17T02:34:46;100373.84;;;1.99;53.62
73518;BME280;61766;60.318;25.044;2024-03-17T02:37:11;100368.65;;;2.29;52.40
73518;BME280;61766;60.318;25.044;2024-03-17T02:39:36;100381.06;;;2.61;52.33
73518;BME280;61766;60.318;25.044;2024-03-17T02:42:02;100388.08;;;2.81;51.82
73518;BME280;61766;60.318;25.044;2024-03-17T02:44:26;100398.57;;;2.52;52.26
73518;BME280;61766;60.318;25.044;2024-03-17T02:46:52;100385.06;;;1.92;52.58
73518;BME280;61766;60.318;25.044;2024-03-17T02:49:17;100384.63;;;1.72;53.56
73518;BME280;61766;60.318;25.044;2024-03-17T02:51:42;100393.05;;;2.07;53.07
73518;BME280;61766;60.318;25.044;2024-03-17T02:54:07;100396.42;;;1.86;53.22
73518;BME280;61766;60.318;25.044;2024-03-17T02:56:32;100402.46;;;2.01;53.38
73518;BME280;61766;60.318;25.044;2024-03-17T02:58:57;100413.17;;;2.02;52.78
73518;BME280;61766;60.318;25.044;2024-03-17T03:01:23;100413.03;;;1.64;53.45
73518;BME280;61766;60.318;25.044;2024-03-17T03:03:48;100413.80;;;2.12;53.41
73518;BME280;61766;60.318;25.044;2024-03-17T03:06:14;100419.14;;;2.16;52.38
73518;BME280;61766;60.318;25.044;2024-03-17T03:08:39;100419.78;;;1.90;53.28
73518;BME280;61766;60.318;25.044;2024-03-17T03:11:03;100416.66;;;2.07;52.37
73518;BME280;61766;60.318;25.044;2024-03-17T03:13:29;100428.80;;;2.19;52.55
73518;BME280;61766;60.318;25.044;2024-03-17T03:15:54;100430.83;;;1.79;52.81
73518;BME280;61766;60.318;25.044;2024-03-17T03:18:19;100433.74;;;1.58;53.22
73518;BME280;61766;60.318;25.044;2024-03-17T03:23:10;100445.66;;;1.79;52.58
73518;BME280;61766;60.318;25.044;2024-03-17T03:25:34;100447.17;;;2.12;51.94
73518;BME280;61766;60.318;25.044;2024-03-17T03:28:00;100450.75;;;1.86;52.57
73518;BME280;61766;60.318;25.044;2024-03-17T03:30:25;100455.13;;;2.17;51.75
73518;BME280;61766;60.318;25.044;2024-03-17T03:32:50;100463.92;;;1.93;51.95
73518;BME280;61766;60.318;25.044;2024-03-17T03:35:15;100467.33;;;2.40;51.56
73518;BME280;61766;60.318;25.044;2024-03-17T03:37:40;100467.54;;;1.64;52.24
73518;BME280;61766;60.318;25.044;2024-03-17T03:40:06;100464.15;;;1.93;52.01
73518;BME280;61766;60.318;25.044;2024-03-17T03:42:31;100458.55;;;1.49;52.58
73518;BME280;61766;60.318;25.044;2024-03-17T03:44:56;100462.47;;;1.47;52.50
73518;BME280;61766;60.318;25.044;2024-03-17T03:47:21;100468.65;;;1.62;52.27
73518;BME280;61766;60.318;25.044;2024-03-17T03:49:46;100476.76;;;1.53;52.87
73518;BME280;61766;60.318;25.044;2024-03-17T03:52:11;100483.87;;;1.17;53.59
73518;BME280;61766;60.318;25.044;2024-03-17T03:54:37;100488.54;;;1.12;53.73
73518;BME280;61766;60.318;25.044;2024-03-17T03:57:02;100490.69;;;1.10;53.45
73518;BME280;61766;60.318;25.044;2024-03-17T03:59:28;100484.40;;;0.97;53.80
73518;BME280;61766;60.318;25.044;2024-03-17T04:01:52;100489.05;;;1.02;53.88
73518;BME280;61766;60.318;25.044;2024-03-17T04:04:17;100487.98;;;1.69;52.68
73518;BME280;61766;60.318;25.044;2024-03-17T04:06:43;100493.61;;;1.45;52.88
73518;BME280;61766;60.318;25.044;2024-03-17T04:09:08;100484.02;;;1.32;52.96
73518;BME280;61766;60.318;25.044;2024-03-17T04:11:33;100496.65;;;1.41;53.01
73518;BME280;61766;60.318;25.044;2024-03-17T04:13:58;100497.06;;;1.65;52.03
73518;BME280;61766;60.318;25.044;2024-03-17T04:16:23;100503.85;;;0.90;53.34
73518;BME280;61766;60.318;25.044;2024-03-17T04:18:49;100515.76;;;0.96;53.56
73518;BME280;61766;60.318;25.044;2024-03-17T04:21:14;100523.78;;;0.92;53.41
73518;BME280;61766;60.318;25.044;2024-03-17T04:23:39;100519.09;;;1.07;53.00
73518;BME280;61766;60.318;25.044;2024-03-17T04:26:05;100527.64;;;1.11;52.56
73518;BME280;61766;60.318;25.044;2024-03-17T04:28:30;100535.34;;;1.23;52.39
73518;BME280;61766;60.318;25.044;2024-03-17T04:33:20;100548.86;;;1.41;52.05
73518;BME280;61766;60.318;25.044;2024-03-17T04:35:45;100546.15;;;1.49;51.84
73518;BME280;61766;60.318;25.044;2024-03-17T04:38:10;100551.67;;;1.73;51.56
73518;BME280;61766;60.318;25.044;2024-03-17T04:40:39;100555.14;;;1.60;51.60
73518;BME280;61766;60.318;25.044;2024-03-17T04:43:01;100561.35;;;1.55;51.15
73518;BME280;61766;60.318;25.044;2024-03-17T04:45:26;100581.77;;;1.20;51.65
73518;BME280;61766;60.318;25.044;2024-03-17T04:47:51;100595.53;;;0.92;52.84
73518;BME280;61766;60.318;25.044;2024-03-17T04:50:16;100598.83;;;0.75;52.82
73518;BME280;61766;60.318;25.044;2024-03-17T04:52:41;100604.65;;;0.98;52.46
73518;BME280;61766;60.318;25.044;2024-03-17T04:55:07;100608.58;;;1.53;51.18
73518;BME280;61766;60.318;25.044;2024-03-17T04:57:32;100611.04;;;0.95;52.09
73518;BME280;61766;60.318;25.044;2024-03-17T04:59:57;100610.23;;;0.90;53.34
73518;BME280;61766;60.318;25.044;2024-03-17T05:02:22;100617.35;;;0.76;53.02
73518;BME280;61766;60.318;25.044;2024-03-17T05:04:48;100627.99;;;0.38;54.35
73518;BME280;61766;60.318;25.044;2024-03-17T05:07:13;100638.81;;;0.69;53.15
73518;BME280;61766;60.318;25.044;2024-03-17T05:09:38;100657.49;;;1.01;52.89
73518;BME280;61766;60.318;25.044;2024-03-17T05:12:03;100661.15;;;0.50;52.59
73518;BME280;61766;60.318;25.044;2024-03-17T05:14:28;100666.66;;;0.70;53.12
73518;BME280;61766;60.318;25.044;2024-03-17T05:16:54;100661.98;;;0.42;52.95
73518;BME280;61766;60.318;25.044;2024-03-17T05:19:19;100668.14;;;0.72;52.55
73518;BME280;61766;60.318;25.044;2024-03-17T05:21:44;100674.23;;;0.09;54.63
73518;BME280;61766;60.318;25.044;2024-03-17T05:24:09;100686.10;;;0.30;53.62
73518;BME280;61766;60.318;25.044;2024-03-17T05:26:34;100680.70;;;0.48;52.68
73518;BME280;61766;60.318;25.044;2024-03-17T05:29:00;100693.26;;;1.06;52.09
73518;BME280;61766;60.318;25.044;2024-03-17T05:31:25;100695.26;;;0.66;52.11
73518;BME280;61766;60.318;25.044;2024-03-17T05:33:50;100706.39;;;0.61;52.64
73518;BME280;61766;60.318;25.044;2024-03-17T05:36:15;100715.13;;;1.03;52.42
73518;BME280;61766;60.318;25.044;2024-03-17T05:38:41;100719.71;;;1.15;51.76
73518;BME280;61766;60.318;25.044;2024-03-17T05:41:08;100723.10;;;0.85;51.27
73518;BME280;61766;60.318;25.044;2024-03-17T05:43:33;100729.23;;;1.23;50.68
73518;BME280;61766;60.318;25.044;2024-03-17T05:45:57;100724.60;;;1.45;50.45
73518;BME280;61766;60.318;25.044;2024-03-17T05:48:22;100732.78;;;1.18;50.92
73518;BME280;61766;60.318;25.044;2024-03-17T05:50:47;100748.12;;;0.86;51.56
73518;BME280;61766;60.318;25.044;2024-03-17T05:53:12;100749.90;;;1.00;52.02
73518;BME280;61766;60.318;25.044;2024-03-17T05:55:38;100760.45;;;0.20;53.15
73518;BME280;61766;60.318;25.044;2024-03-17T05:58:03;100768.19;;;0.55;53.01
73518;BME280;61766;60.318;25.044;2024-03-17T06:00:28;100773.64;;;0.87;52.50
73518;BME280;61766;60.318;25.044;2024-03-17T06:02:53;100774.94;;;0.91;51.79
73518;BME280;61766;60.318;25.044;2024-03-17T06:05:18;100793.30;;;0.90;51.57
73518;BME280;61766;60.318;25.044;2024-03-17T06:07:44;100795.38;;;0.87;51.53
73518;BME280;61766;60.318;25.044;2024-03-17T06:10:09;100799.12;;;1.00;51.33
73518;BME280;61766;60.318;25.044;2024-03-17T06:12:34;100802.63;;;0.94;51.73
73518;BME280;61766;60.318;25.044;2024-03-17T06:14:59;100798.78;;;0.51;51.95
73518;BME280;61766;60.318;25.044;2024-03-17T06:17:24;100809.22;;;0.67;51.45
73518;BME280;61766;60.318;25.044;2024-03-17T06:19:49;100817.66;;;0.45;51.94
73518;BME280;61766;60.318;25.044;2024-03-17T06:22:15;100820.66;;;0.37;52.09
73518;BME280;61766;60.318;25.044;2024-03-17T06:24:40;100825.33;;;-0.22;53.98
73518;BME280;61766;60.318;25.044;2024-03-17T06:27:06;100835.15;;;0.72;52.54
73518;BME280;61766;60.318;25.044;2024-03-17T06:29:32;100845.51;;;0.92;51.35
73518;BME280;61766;60.318;25.044;2024-03-17T06:31:56;100840.38;;;0.82;50.93
73518;BME280;61766;60.318;25.044;2024-03-17T06:34:21;100853.50;;;0.14;55.19
73518;BME280;61766;60.318;25.044;2024-03-17T06:36:47;100855.55;;;-0.16;54.60
73518;BME280;61766;60.318;25.044;2024-03-17T06:39:13;100858.41;;;-0.07;54.40
73518;BME280;61766;60.318;25.044;2024-03-17T06:41:37;100873.41;;;0.12;53.74
73518;BME280;61766;60.318;25.044;2024-03-17T06:44:02;100879.78;;;0.24;53.99
73518;BME280;61766;60.318;25.044;2024-03-17T06:46:27;100883.76;;;0.61;52.74
73518;BME280;61766;60.318;25.044;2024-03-17T06:48:52;100890.49;;;0.56;52.02
73518;BME280;61766;60.318;25.044;2024-03-17T06:51:17;100903.23;;;0.75;50.97
73518;BME280;61766;60.318;25.044;2024-03-17T06:53:43;100907.13;;;0.88;50.83
73518;BME280;61766;60.318;25.044;2024-03-17T06:56:08;100909.38;;;1.00;50.45
73518;BME280;61766;60.318;25.044;2024-03-17T06:58:33;100913.93;;;0.60;50.40
73518;BME280;61766;60.318;25.044;2024-03-17T07:00:59;100931.86;;;0.96;51.57
73518;BME280;61766;60.318;25.044;2024-03-17T07:03:24;100931.81;;;0.67;50.48
73518;BME280;61766;60.318;25.044;2024-03-17T07:05:54;100938.24;;;0.38;50.99
73518;BME280;61766;60.318;25.044;2024-03-17T07:08:14;100949.82;;;0.80;50.75
73518;BME280;61766;60.318;25.044;2024-03-17T07:10:39;100950.30;;;0.77;50.57
73518;BME280;61766;60.318;25.044;2024-03-17T07:13:05;100963.24;;;0.58;50.28
73518;BME280;61766;60.318;25.044;2024-03-17T07:15:30;100951.30;;;0.63;50.03
73518;BME280;61766;60.318;25.044;2024-03-17T07:17:58;100961.21;;;0.65;49.00
73518;BME280;61766;60.318;25.044;2024-03-17T07:20:20;100966.48;;;0.74;49.60
73518;BME280;61766;60.318;25.044;2024-03-17T07:22:45;100970.28;;;0.37;49.89
73518;BME280;61766;60.318;25.044;2024-03-17T07:25:11;100978.77;;;-0.73;57.84
73518;BME280;61766;60.318;25.044;2024-03-17T07:27:36;100981.70;;;-0.16;54.52
73518;BME280;61766;60.318;25.044;2024-03-17T07:30:02;100984.98;;;-0.30;53.17
73518;BME280;61766;60.318;25.044;2024-03-17T07:32:27;100997.20;;;-0.35;52.57
73518;BME280;61766;60.318;25.044;2024-03-17T07:34:52;100993.22;;;0.17;51.62
73518;BME280;61766;60.318;25.044;2024-03-17T07:37:17;101002.45;;;0.16;51.68
73518;BME280;61766;60.318;25.044;2024-03-17T07:39:42;101001.63;;;0.23;50.74
73518;BME280;61766;60.318;25.044;2024-03-17T07:42:08;101009.09;;;-0.22;51.37
73518;BME280;61766;60.318;25.044;2024-03-17T07:44:33;101007.09;;;0.03;51.02
73518;BME280;61766;60.318;25.044;2024-03-17T07:46:58;101023.17;;;0.20;50.05
73518;BME280;61766;60.318;25.044;2024-03-17T07:49:23;101024.27;;;0.12;50.34
73518;BME280;61766;60.318;25.044;2024-03-17T07:51:49;101033.05;;;0.25;50.22
73518;BME280;61766;60.318;25.044;2024-03-17T07:54:14;101039.97;;;0.81;49.50
73518;BME280;61766;60.318;25.044;2024-03-17T07:56:39;101046.86;;;-0.04;50.80
73518;BME280;61766;60.318;25.044;2024-03-17T07:59:04;101055.52;;;0.49;49.49
73518;BME280;61766;60.318;25.044;2024-03-17T08:01:30;101063.81;;;-0.25;50.10
73518;BME280;61766;60.318;25.044;2024-03-17T08:03:55;101061.56;;;-0.21;50.79
73518;BME280;61766;60.318;25.044;2024-03-17T08:06:20;101069.71;;;-0.06;51.11
73518;BME280;61766;60.318;25.044;2024-03-17T08:08:45;101065.99;;;0.00;50.43
73518;BME280;61766;60.318;25.044;2024-03-17T08:11:11;101073.68;;;-0.25;50.70
73518;BME280;61766;60.318;25.044;2024-03-17T08:13:37;101077.04;;;-0.18;50.26
73518;BME280;61766;60.318;25.044;2024-03-17T08:16:05;101082.79;;;-0.42;50.58
73518;BME280;61766;60.318;25.044;2024-03-17T08:18:28;101084.61;;;-0.67;51.78
73518;BME280;61766;60.318;25.044;2024-03-17T08:20:53;101089.93;;;-0.45;50.64
73518;BME280;61766;60.318;25.044;2024-03-17T08:23:18;101103.81;;;-0.29;50.34
73518;BME280;61766;60.318;25.044;2024-03-17T08:25:49;101101.74;;;-0.09;49.96
73518;BME280;61766;60.318;25.044;2024-03-17T08:28:09;101108.40;;;-0.81;50.69
73518;BME280;61766;60.318;25.044;2024-03-17T08:30:36;101115.96;;;-0.34;50.15
73518;BME280;61766;60.318;25.044;2024-03-17T08:32:59;101115.92;;;-0.30;49.89
73518;BME280;61766;60.318;25.044;2024-03-17T08:35:25;101122.39;;;-0.47;50.16
73518;BME280;61766;60.318;25.044;2024-03-17T08:37:50;101115.66;;;-0.48;49.63
73518;BME280;61766;60.318;25.044;2024-03-17T08:40:16;101126.73;;;-0.85;50.86
73518;BME280;61766;60.318;25.044;2024-03-17T08:42:41;101126.03;;;-0.75;51.17
73518;BME280;61766;60.318;25.044;2024-03-17T08:45:07;101136.38;;;-0.58;50.72
73518;BME280;61766;60.318;25.044;2024-03-17T08:47:33;101136.14;;;-0.37;50.57
73518;BME280;61766;60.318;25.044;2024-03-17T08:49:57;101138.25;;;-0.58;50.68
73518;BME280;61766;60.318;25.044;2024-03-17T08:52:22;101147.80;;;-0.24;50.50
73518;BME280;61766;60.318;25.044;2024-03-17T08:54:49;101157.64;;;-0.99;51.05
73518;BME280;61766;60.318;25.044;2024-03-17T08:57:13;101175.00;;;-1.14;51.11
73518;BME280;61766;60.318;25.044;2024-03-17T08:59:38;101178.57;;;-0.90;53.21
73518;BME280;61766;60.318;25.044;2024-03-17T09:02:03;101171.72;;;-0.64;51.21
73518;BME280;61766;60.318;25.044;2024-03-17T09:04:29;101184.86;;;-0.94;51.46
73518;BME280;61766;60.318;25.044;2024-03-17T09:06:54;101187.88;;;-0.91;50.76
73518;BME280;61766;60.318;25.044;2024-03-17T09:09:19;101195.80;;;-0.57;50.34
73518;BME280;61766;60.318;25.044;2024-03-17T09:11:44;101203.60;;;-0.67;49.79
73518;BME280;61766;60.318;25.044;2024-03-17T09:14:10;101211.75;;;-1.21;50.84
73518;BME280;61766;60.318;25.044;2024-03-17T09:16:35;101210.16;;;-0.50;49.96
73518;BME280;61766;60.318;25.044;2024-03-17T09:19:00;101224.01;;;-1.35;51.83
73518;BME280;61766;60.318;25.044;2024-03-17T09:21:25;101219.58;;;-0.95;50.83
73518;BME280;61766;60.318;25.044;2024-03-17T09:23:51;101230.78;;;-0.52;50.19
73518;BME280;61766;60.318;25.044;2024-03-17T09:26:17;101239.24;;;-0.93;50.45
73518;BME280;61766;60.318;25.044;2024-03-17T09:28:41;101245.93;;;-0.98;50.54
73518;BME280;61766;60.318;25.044;2024-03-17T09:31:07;101256.78;;;-1.12;50.72
73518;BME280;61766;60.318;25.044;2024-03-17T09:33:34;101258.68;;;-0.54;49.79
73518;BME280;61766;60.318;25.044;2024-03-17T09:35:58;101271.02;;;-1.08;50.85
73518;BME280;61766;60.318;25.044;2024-03-17T09:38:23;101276.03;;;-0.76;49.70
73518;BME280;61766;60.318;25.044;2024-03-17T09:40:49;101283.33;;;-0.55;49.00
73518;BME280;61766;60.318;25.044;2024-03-17T09:43:14;101288.57;;;-1.04;49.28
73518;BME280;61766;60.318;25.044;2024-03-17T09:45:39;101298.72;;;-0.87;49.14
73518;BME280;61766;60.318;25.044;2024-03-17T09:48:04;101309.08;;;-0.87;49.57
73518;BME280;61766;60.318;25.044;2024-03-17T09:50:32;101309.87;;;-0.60;49.30
73518;BME280;61766;60.318;25.044;2024-03-17T09:52:54;101316.46;;;-0.39;48.76
73518;BME280;61766;60.318;25.044;2024-03-17T09:55:21;101328.13;;;-0.64;48.16
73518;BME280;61766;60.318;25.044;2024-03-17T09:57:47;101328.65;;;-0.38;48.73
73518;BME280;61766;60.318;25.044;2024-03-17T10:00:14;101332.78;;;-0.35;48.05
73518;BME280;61766;60.318;25.044;2024-03-17T10:02:35;101345.69;;;-0.53;47.79
73518;BME280;61766;60.318;25.044;2024-03-17T10:05:00;101352.10;;;-0.55;48.01
73518;BME280;61766;60.318;25.044;2024-03-17T10:07:37;101358.06;;;-1.13;49.83
73518;BME280;61766;60.318;25.044;2024-03-17T10:09:50;101355.38;;;-1.65;50.71
73518;BME280;61766;60.318;25.044;2024-03-17T10:12:26;101362.19;;;-1.15;50.35
73518;BME280;61766;60.318;25.044;2024-03-17T10:14:41;101375.07;;;-0.70;49.91
73518;BME280;61766;60.318;25.044;2024-03-17T10:17:07;101379.28;;;-1.00;50.84
73518;BME280;61766;60.318;25.044;2024-03-17T10:19:31;101374.69;;;-1.35;50.22
73518;BME280;61766;60.318;25.044;2024-03-17T10:22:01;101394.71;;;-1.02;50.33
73518;BME280;61766;60.318;25.044;2024-03-17T10:24:23;101394.44;;;-0.93;48.77
73518;BME280;61766;60.318;25.044;2024-03-17T10:26:48;101406.49;;;-0.75;49.27
73518;BME280;61766;60.318;25.044;2024-03-17T10:29:23;101401.17;;;-0.80;48.92
73518;BME280;61766;60.318;25.044;2024-03-17T10:31:42;101404.93;;;-0.65;47.70
73518;BME280;61766;60.318;25.044;2024-03-17T10:34:06;101410.98;;;-0.40;47.53
73518;BME280;61766;60.318;25.044;2024-03-17T10:36:28;101407.00;;;-0.66;48.02
73518;BME280;61766;60.318;25.044;2024-03-17T10:38:55;101419.23;;;-0.85;48.76
73518;BME280;61766;60.318;25.044;2024-03-17T10:41:19;101424.82;;;-0.94;50.82
73518;BME280;61766;60.318;25.044;2024-03-17T10:43:44;101424.28;;;-1.14;49.54
73518;BME280;61766;60.318;25.044;2024-03-17T10:46:10;101426.54;;;-1.31;49.70
73518;BME280;61766;60.318;25.044;2024-03-17T10:48:35;101440.32;;;-1.48;50.03
73518;BME280;61766;60.318;25.044;2024-03-17T10:51:02;101440.27;;;-1.95;52.75
73518;BME280;61766;60.318;25.044;2024-03-17T10:53:25;101441.26;;;-1.36;51.00
73518;BME280;61766;60.318;25.044;2024-03-17T10:55:50;101441.25;;;-1.16;50.19
73518;BME280;61766;60.318;25.044;2024-03-17T10:58:23;101446.66;;;-1.30;50.40
73518;BME280;61766;60.318;25.044;2024-03-17T11:00:41;101450.65;;;-1.14;49.56
73518;BME280;61766;60.318;25.044;2024-03-17T11:03:09;101453.69;;;-1.29;50.17
73518;BME280;61766;60.318;25.044;2024-03-17T11:05:32;101458.18;;;-1.75;49.78
73518;BME280;61766;60.318;25.044;2024-03-17T11:07:57;101461.53;;;-0.80;48.37
73518;BME280;61766;60.318;25.044;2024-03-17T11:10:24;101469.00;;;-0.86;48.71
73518;BME280;61766;60.318;25.044;2024-03-17T11:12:49;101474.31;;;-1.12;48.61
73518;BME280;61766;60.318;25.044;2024-03-17T11:17:37;101495.49;;;-1.39;49.58
73518;BME280;61766;60.318;25.044;2024-03-17T11:20:10;101501.70;;;-2.00;50.44
73518;BME280;61766;60.318;25.044;2024-03-17T11:22:41;101508.80;;;-1.21;49.11
73518;BME280;61766;60.318;25.044;2024-03-17T11:24:53;101507.86;;;-1.50;48.37
73518;BME280;61766;60.318;25.044;2024-03-17T11:29:44;101515.55;;;-0.89;48.60
73518;BME280;61766;60.318;25.044;2024-03-17T11:34:36;101525.87;;;-1.42;49.54
73518;BME280;61766;60.318;25.044;2024-03-17T11:37:00;101536.46;;;-1.18;48.81
73518;BME280;61766;60.318;25.044;2024-03-17T11:41:51;101547.73;;;-1.46;51.91
73518;BME280;61766;60.318;25.044;2024-03-17T11:46:41;101557.65;;;-0.88;49.01
73518;BME280;61766;60.318;25.044;2024-03-17T11:49:16;101555.22;;;-1.60;49.37
73518;BME280;61766;60.318;25.044;2024-03-17T11:51:32;101559.27;;;-1.53;48.82
73518;BME280;61766;60.318;25.044;2024-03-17T11:54:01;101560.23;;;-0.86;47.82
73518;BME280;61766;60.318;25.044;2024-03-17T11:56:26;101571.88;;;-0.99;47.88
73518;BME280;61766;60.318;25.044;2024-03-17T11:58:47;101564.02;;;-1.48;48.07
73518;BME280;61766;60.318;25.044;2024-03-17T12:01:14;101576.45;;;-2.22;50.12
73518;BME280;61766;60.318;25.044;2024-03-17T12:03:38;101584.12;;;-1.23;50.47
73518;BME280;61766;60.318;25.044;2024-03-17T12:06:03;101588.12;;;-1.68;48.95
73518;BME280;61766;60.318;25.044;2024-03-17T12:08:28;101593.49;;;-1.21;48.93
73518;BME280;61766;60.318;25.044;2024-03-17T12:10:53;101595.06;;;-1.28;49.02
73518;BME280;61766;60.318;25.044;2024-03-17T12:13:18;101605.55;;;-1.38;48.18
73518;BME280;61766;60.318;25.044;2024-03-17T12:15:44;101617.10;;;-1.04;47.60
73518;BME280;61766;60.318;25.044;2024-03-17T12:18:19;101618.54;;;-1.09;47.44
73518;BME280;61766;60.318;25.044;2024-03-17T12:20:34;101619.46;;;-0.97;46.95
73518;BME280;61766;60.318;25.044;2024-03-17T12:22:59;101617.79;;;-1.67;48.68
73518;BME280;61766;60.318;25.044;2024-03-17T12:25:25;101633.66;;;-1.23;47.83
73518;BME280;61766;60.318;25.044;2024-03-17T12:27:50;101629.29;;;-0.75;47.20
73518;BME280;61766;60.318;25.044;2024-03-17T12:30:16;101642.67;;;-1.18;47.22
73518;BME280;61766;60.318;25.044;2024-03-17T12:32:41;101646.20;;;-0.85;47.19
73518;BME280;61766;60.318;25.044;2024-03-17T12:35:12;101649.09;;;-0.75;47.31
73518;BME280;61766;60.318;25.044;2024-03-17T12:37:31;101654.10;;;-0.56;46.87
73518;BME280;61766;60.318;25.044;2024-03-17T12:39:56;101656.37;;;-0.98;47.56
73518;BME280;61766;60.318;25.044;2024-03-17T12:42:27;101665.09;;;-0.64;47.07
73518;BME280;61766;60.318;25.044;2024-03-17T12:44:52;101664.63;;;-0.60;46.42
73518;BME280;61766;60.318;25.044;2024-03-17T12:47:19;101675.98;;;-0.59;46.60
73518;BME280;61766;60.318;25.044;2024-03-17T12:49:43;101680.20;;;-0.87;46.51
73518;BME280;61766;60.318;25.044;2024-03-17T12:52:03;101682.27;;;-0.61;46.33